Time;durP1;ratioP1;P1;durP2;ratioP2;P2;SDS_P1;SDS_P2;PMS_P1;PMS_P2;Temp;Humidity;BMP_temperature;BMP_pressure;BME280_temperature;BME280_humidity;BME280_pressure;Samples;Min_cycle;Max_cycle;Signal;HPM_P1;HPM_P2
2022/03/01 00:00:03;;;;;;;16.37;7.67;;;6.60;40.20;;;;;;5065098;28;20553;-84
2022/03/01 00:02:39;;;;;;;17.67;8.27;;;6.50;39.80;;;;;;5063672;28;20469;-85
2022/03/01 00:05:08;;;;;;;13.83;7.27;;;6.40;39.60;;;;;;5064632;28;20781;-84
2022/03/01 00:07:34;;;;;;;18.37;7.47;;;6.30;39.40;;;;;;5056691;28;20443;-85
2022/03/01 00:10:01;;;;;;;13.00;7.03;;;6.20;39.20;;;;;;5081977;28;21012;-84
2022/03/01 00:12:29;;;;;;;13.10;6.60;;;5.90;40.00;;;;;;5082615;28;20476;-84
2022/03/01 00:14:56;;;;;;;12.60;6.97;;;5.70;40.50;;;;;;5060563;28;20460;-85
2022/03/01 00:17:24;;;;;;;14.63;7.20;;;5.70;40.00;;;;;;5065590;28;20590;-84
2022/03/01 00:19:51;;;;;;;13.10;7.67;;;5.80;40.00;;;;;;5083833;28;20482;-86
2022/03/01 00:22:19;;;;;;;21.20;9.67;;;5.80;39.90;;;;;;5083257;28;20467;-84
2022/03/01 00:24:46;;;;;;;24.20;10.20;;;5.90;39.90;;;;;;5062811;28;20463;-84
2022/03/01 00:27:13;;;;;;;19.30;8.30;;;6.00;40.30;;;;;;5045995;28;20452;-86
2022/03/01 00:29:40;;;;;;;23.17;10.67;;;6.00;40.10;;;;;;5053418;28;20483;-84
2022/03/01 00:32:08;;;;;;;23.03;9.57;;;6.10;40.30;;;;;;5035277;28;20834;-85
2022/03/01 00:34:35;;;;;;;19.63;8.70;;;6.20;40.50;;;;;;5081182;28;20452;-85
2022/03/01 00:37:02;;;;;;;13.80;7.40;;;6.30;40.30;;;;;;5062650;28;20459;-85
2022/03/01 00:39:30;;;;;;;18.53;8.50;;;6.30;39.80;;;;;;5062015;28;20476;-85
2022/03/01 00:41:57;;;;;;;19.37;10.07;;;6.30;39.60;;;;;;5061591;28;21031;-84
2022/03/01 00:44:24;;;;;;;18.93;7.33;;;6.30;40.00;;;;;;5082818;28;20841;-84
2022/03/01 00:46:51;;;;;;;17.73;7.00;;;6.30;40.20;;;;;;5067850;28;20444;-84
2022/03/01 00:49:18;;;;;;;15.63;6.53;;;6.20;39.60;;;;;;5079496;28;20483;-83
2022/03/01 00:51:45;;;;;;;11.90;6.53;;;6.20;39.90;;;;;;5035038;28;20447;-84
2022/03/01 00:54:12;;;;;;;14.13;7.73;;;6.20;40.60;;;;;;5049499;28;21030;-84
2022/03/01 00:56:40;;;;;;;14.60;7.80;;;6.20;40.10;;;;;;5056283;28;20460;-84
2022/03/01 00:59:07;;;;;;;13.27;6.30;;;6.20;40.00;;;;;;5067364;28;20490;-84
2022/03/01 01:01:34;;;;;;;12.23;6.73;;;6.00;39.90;;;;;;5082977;28;20504;-84
2022/03/01 01:04:01;;;;;;;22.67;8.10;;;6.00;40.60;;;;;;5049091;28;20888;-85
2022/03/01 01:06:28;;;;;;;18.63;7.90;;;6.10;40.50;;;;;;5050205;28;20443;-83
2022/03/01 01:08:55;;;;;;;10.17;6.50;;;6.10;40.40;;;;;;5064112;28;20472;-85
2022/03/01 01:11:23;;;;;;;12.90;6.77;;;6.10;40.10;;;;;;5057403;28;20444;-84
2022/03/01 01:13:51;;;;;;;12.23;6.80;;;6.10;40.20;;;;;;5065788;28;20506;-85
2022/03/01 01:16:18;;;;;;;15.47;6.77;;;6.10;39.70;;;;;;5049847;28;20540;-84
2022/03/01 01:18:45;;;;;;;12.30;6.60;;;6.10;40.30;;;;;;5047843;28;20824;-84
2022/03/01 01:21:13;;;;;;;17.37;7.43;;;6.20;40.40;;;;;;5067905;28;20439;-85
2022/03/01 01:23:41;;;;;;;13.90;7.40;;;6.20;40.50;;;;;;5084898;28;20457;-84
2022/03/01 01:26:08;;;;;;;13.67;7.27;;;6.20;40.30;;;;;;5064842;28;20493;-83
2022/03/01 01:28:35;;;;;;;13.93;7.03;;;6.20;40.40;;;;;;5067639;28;20463;-84
2022/03/01 01:31:04;;;;;;;17.80;7.50;;;6.20;40.20;;;;;;5033667;28;20455;-84
2022/03/01 01:33:31;;;;;;;12.80;6.73;;;6.20;40.70;;;;;;5048210;28;20523;-84
2022/03/01 01:35:58;;;;;;;14.47;8.63;;;6.10;40.20;;;;;;5063771;28;20970;-84
2022/03/01 01:38:25;;;;;;;25.37;8.03;;;6.10;40.30;;;;;;5050075;28;20469;-85
2022/03/01 01:40:52;;;;;;;16.43;7.43;;;5.90;40.10;;;;;;5065509;28;20976;-83
2022/03/01 01:43:19;;;;;;;14.23;7.27;;;5.80;40.80;;;;;;5084360;28;20470;-84
2022/03/01 01:45:46;;;;;;;14.83;6.20;;;5.70;41.10;;;;;;5065503;28;20454;-84
2022/03/01 01:48:14;;;;;;;13.43;7.83;;;5.80;41.40;;;;;;5084205;28;20452;-85
2022/03/01 01:50:42;;;;;;;15.10;6.97;;;5.70;40.50;;;;;;5083731;28;20487;-84
2022/03/01 01:53:10;;;;;;;15.97;7.23;;;5.60;40.60;;;;;;5064505;28;20584;-84
2022/03/01 01:55:37;;;;;;;13.40;6.90;;;5.50;40.60;;;;;;5083571;28;20460;-84
2022/03/01 01:58:04;;;;;;;16.13;7.10;;;5.50;41.00;;;;;;5066147;28;20458;-84
2022/03/01 02:00:31;;;;;;;12.47;6.53;;;5.50;41.10;;;;;;5035136;28;20836;-84
2022/03/01 02:02:59;;;;;;;11.10;6.67;;;5.50;40.80;;;;;;5048447;28;20436;-86
2022/03/01 02:05:28;;;;;;;12.30;5.83;;;5.50;40.80;;;;;;5063965;28;20455;-84
2022/03/01 02:07:55;;;;;;;10.03;6.57;;;5.50;40.50;;;;;;5082966;28;20455;-84
2022/03/01 02:10:22;;;;;;;16.20;5.83;;;5.60;40.80;;;;;;5085198;28;20472;-84
2022/03/01 02:12:49;;;;;;;12.37;6.50;;;5.70;41.00;;;;;;5082347;28;20507;-84
2022/03/01 02:15:17;;;;;;;14.10;6.90;;;5.70;41.30;;;;;;5065914;28;20782;-84
2022/03/01 02:17:44;;;;;;;10.80;5.60;;;5.80;41.20;;;;;;5048444;28;20493;-84
2022/03/01 02:20:15;;;;;;;17.33;8.87;;;5.80;40.80;;;;;;5064150;28;20471;-84
2022/03/01 02:22:43;;;;;;;10.60;6.50;;;5.90;40.60;;;;;;5038497;28;20444;-83
2022/03/01 02:25:10;;;;;;;12.83;7.10;;;5.80;40.50;;;;;;5054424;28;20513;-84
2022/03/01 02:27:38;;;;;;;12.90;6.73;;;5.80;41.00;;;;;;5053524;28;20463;-85
2022/03/01 02:30:09;;;;;;;14.00;7.73;;;5.80;41.00;;;;;;5067100;28;20470;-85
2022/03/01 02:32:37;;;;;;;17.10;7.90;;;5.80;41.20;;;;;;5063260;28;20562;-84
2022/03/01 02:35:05;;;;;;;14.83;6.93;;;5.80;41.60;;;;;;5039873;28;20501;-84
2022/03/01 02:37:33;;;;;;;15.93;6.97;;;5.80;41.50;;;;;;5082950;28;21195;-86
2022/03/01 02:40:00;;;;;;;13.63;7.23;;;5.80;41.40;;;;;;5063299;28;20483;-84
2022/03/01 02:42:30;;;;;;;12.83;8.60;;;5.80;41.30;;;;;;5065255;28;20467;-84
2022/03/01 02:44:57;;;;;;;13.73;7.20;;;5.80;40.60;;;;;;5064000;28;20480;-84
2022/03/01 02:47:24;;;;;;;12.07;6.27;;;5.60;40.00;;;;;;5083994;28;20462;-85
2022/03/01 02:49:51;;;;;;;13.33;6.40;;;5.50;40.40;;;;;;5082575;28;20490;-84
2022/03/01 02:52:18;;;;;;;12.97;6.30;;;5.30;40.20;;;;;;5067283;28;20482;-83
2022/03/01 02:54:47;;;;;;;15.47;7.30;;;5.20;40.60;;;;;;5047875;28;20463;-84
2022/03/01 02:57:14;;;;;;;16.33;7.10;;;5.10;40.70;;;;;;5047686;28;20455;-83
2022/03/01 02:59:42;;;;;;;11.73;6.37;;;4.90;40.50;;;;;;5040418;28;23265;-83
2022/03/01 03:02:12;;;;;;;16.50;7.30;;;4.50;41.30;;;;;;5065819;28;20850;-84
2022/03/01 03:04:39;;;;;;;19.23;7.37;;;4.60;41.70;;;;;;5055017;28;20440;-84
2022/03/01 03:07:06;;;;;;;15.23;7.63;;;4.60;42.00;;;;;;5083499;28;20488;-83
2022/03/01 03:09:33;;;;;;;15.20;7.73;;;4.60;42.00;;;;;;5071061;28;20499;-84
2022/03/01 03:12:01;;;;;;;21.53;8.23;;;4.50;42.00;;;;;;5068781;28;20452;-83
2022/03/01 03:14:28;;;;;;;14.03;6.90;;;4.50;41.90;;;;;;5066107;28;20479;-84
2022/03/01 03:16:55;;;;;;;14.00;7.37;;;4.70;42.30;;;;;;5082448;28;20470;-83
2022/03/01 03:19:23;;;;;;;12.67;7.83;;;4.80;42.30;;;;;;5064399;28;20478;-83
2022/03/01 03:21:50;;;;;;;13.33;6.33;;;4.90;42.30;;;;;;5049523;28;20448;-83
2022/03/01 03:24:17;;;;;;;19.10;7.27;;;5.00;42.20;;;;;;5090611;28;20454;-83
2022/03/01 03:26:45;;;;;;;20.67;7.50;;;5.00;42.40;;;;;;5085045;28;20447;-84
2022/03/01 03:29:14;;;;;;;10.70;6.77;;;5.10;42.50;;;;;;5086970;28;20503;-83
2022/03/01 03:31:43;;;;;;;16.23;7.90;;;5.10;42.10;;;;;;5066238;28;20463;-80
2022/03/01 03:34:11;;;;;;;13.73;6.73;;;5.10;42.00;;;;;;5087125;28;20535;-85
2022/03/01 03:36:40;;;;;;;20.70;8.00;;;5.00;41.70;;;;;;5067465;28;20542;-84
2022/03/01 03:39:09;;;;;;;13.87;7.10;;;5.00;41.50;;;;;;5086234;28;20471;-84
2022/03/01 03:41:37;;;;;;;13.97;6.40;;;4.90;41.80;;;;;;5063156;28;20467;-83
2022/03/01 03:44:04;;;;;;;12.77;7.70;;;4.80;42.20;;;;;;5084814;28;20454;-84
2022/03/01 03:46:33;;;;;;;14.33;7.40;;;4.80;42.30;;;;;;5083516;28;20455;-84
2022/03/01 03:49:00;;;;;;;13.40;7.50;;;4.90;42.40;;;;;;5081765;28;21276;-84
2022/03/01 03:51:27;;;;;;;13.50;8.20;;;4.90;41.70;;;;;;5083542;28;20895;-83
2022/03/01 03:53:54;;;;;;;13.17;8.50;;;4.90;41.90;;;;;;5063853;28;20479;-82
2022/03/01 03:56:21;;;;;;;21.50;7.00;;;5.00;41.80;;;;;;5083928;28;20451;-83
2022/03/01 03:58:48;;;;;;;14.70;7.63;;;4.90;41.90;;;;;;5084140;28;20476;-83
2022/03/01 04:01:15;;;;;;;12.23;7.93;;;4.70;41.60;;;;;;5066754;28;20458;-83
2022/03/01 04:03:44;;;;;;;19.50;8.80;;;4.40;42.20;;;;;;5063591;28;20799;-83
2022/03/01 04:06:11;;;;;;;11.93;7.07;;;4.30;42.50;;;;;;5083516;28;20455;-85
2022/03/01 04:08:38;;;;;;;13.30;7.27;;;4.40;42.50;;;;;;5068151;28;20535;-85
2022/03/01 04:11:05;;;;;;;15.43;7.70;;;4.40;42.10;;;;;;5084177;28;20451;-84
2022/03/01 04:13:32;;;;;;;16.37;7.13;;;4.40;42.20;;;;;;5081780;28;20522;-83
2022/03/01 04:15:59;;;;;;;11.37;6.27;;;4.50;42.50;;;;;;5062290;28;20455;-84
2022/03/01 04:18:26;;;;;;;13.00;6.90;;;4.60;42.20;;;;;;5080570;28;20463;-85
2022/03/01 04:20:54;;;;;;;18.60;7.60;;;4.60;42.50;;;;;;5082075;28;20542;-84
2022/03/01 04:23:21;;;;;;;14.93;7.03;;;4.50;41.60;;;;;;5081866;28;20714;-84
2022/03/01 04:25:48;;;;;;;15.90;6.80;;;4.50;42.20;;;;;;5081619;28;20963;-84
2022/03/01 04:28:15;;;;;;;23.10;12.43;;;4.30;42.00;;;;;;5049728;28;20590;-84
2022/03/01 04:30:42;;;;;;;25.87;14.10;;;4.20;41.90;;;;;;5049595;28;21346;-83
2022/03/01 04:33:09;;;;;;;27.03;14.30;;;4.10;42.50;;;;;;5069766;28;20985;-84
2022/03/01 04:35:36;;;;;;;25.53;10.27;;;4.20;42.80;;;;;;5057728;28;20467;-85
2022/03/01 04:38:04;;;;;;;41.47;20.17;;;4.10;42.10;;;;;;5086757;28;20455;-85
2022/03/01 04:40:32;;;;;;;25.77;10.60;;;3.90;42.60;;;;;;5088223;28;20479;-84
2022/03/01 04:42:59;;;;;;;20.97;8.90;;;3.70;43.20;;;;;;5025510;28;20455;-84
2022/03/01 04:45:26;;;;;;;15.90;8.37;;;3.70;43.30;;;;;;5068954;28;20547;-85
2022/03/01 04:47:53;;;;;;;13.20;8.30;;;3.80;43.50;;;;;;5083650;28;20460;-85
2022/03/01 04:50:20;;;;;;;13.30;7.83;;;3.90;43.50;;;;;;5084835;28;20840;-85
2022/03/01 04:52:47;;;;;;;14.13;6.83;;;4.10;43.30;;;;;;5085326;28;20459;-84
2022/03/01 04:55:16;;;;;;;24.57;8.27;;;4.00;42.60;;;;;;5061419;28;20498;-84
2022/03/01 04:57:43;;;;;;;15.93;9.00;;;3.90;42.70;;;;;;5066609;28;20879;-82
2022/03/01 05:00:12;;;;;;;12.30;8.17;;;4.00;42.90;;;;;;5087217;28;20518;-84
2022/03/01 05:02:41;;;;;;;13.97;7.00;;;3.90;43.00;;;;;;5065912;28;20538;-85
2022/03/01 05:05:10;;;;;;;14.67;6.80;;;3.90;42.60;;;;;;5081630;28;20520;-84
2022/03/01 05:07:39;;;;;;;15.40;7.43;;;3.70;42.60;;;;;;5085277;28;20532;-86
2022/03/01 05:10:07;;;;;;;18.23;7.97;;;3.40;43.40;;;;;;5086019;28;20479;-84
2022/03/01 05:12:43;;;;;;;16.47;7.90;;;3.50;43.20;;;;;;5071071;28;20456;-85
2022/03/01 05:15:11;;;;;;;19.67;7.70;;;3.50;43.20;;;;;;5052198;28;20463;-85
2022/03/01 05:17:38;;;;;;;10.60;6.07;;;3.50;43.40;;;;;;5050136;28;20463;-85
2022/03/01 05:20:06;;;;;;;18.03;8.60;;;3.50;42.90;;;;;;5082903;28;20490;-85
2022/03/01 05:22:33;;;;;;;13.00;6.53;;;3.60;42.40;;;;;;5068488;28;20548;-85
2022/03/01 05:25:01;;;;;;;10.97;7.13;;;3.50;42.90;;;;;;5063663;28;20467;-85
2022/03/01 05:27:28;;;;;;;18.20;9.10;;;3.60;43.10;;;;;;5068381;28;20459;-85
2022/03/01 05:29:57;;;;;;;11.47;7.30;;;3.60;42.80;;;;;;5056082;28;20845;-84
2022/03/01 05:32:24;;;;;;;15.13;9.50;;;3.70;42.90;;;;;;5086555;28;20826;-85
2022/03/01 05:34:51;;;;;;;14.93;9.00;;;3.80;43.10;;;;;;5083006;28;20475;-85
2022/03/01 05:37:18;;;;;;;19.70;11.20;;;3.80;43.20;;;;;;5083397;28;21043;-85
2022/03/01 05:39:46;;;;;;;15.67;9.43;;;3.80;43.50;;;;;;5063256;28;20482;-85
2022/03/01 05:42:13;;;;;;;15.07;9.50;;;3.90;43.30;;;;;;5083141;28;20452;-85
2022/03/01 05:44:40;;;;;;;12.40;6.70;;;4.00;43.20;;;;;;5084016;28;20456;-85
2022/03/01 05:47:08;;;;;;;22.10;8.27;;;4.00;43.20;;;;;;5049389;28;20452;-85
2022/03/01 05:49:35;;;;;;;20.60;11.23;;;3.90;43.70;;;;;;5049684;28;20889;-85
2022/03/01 05:52:02;;;;;;;15.37;9.67;;;3.80;43.20;;;;;;5082098;28;20564;-85
2022/03/01 05:54:29;;;;;;;21.30;11.97;;;3.70;43.10;;;;;;5083355;28;20476;-85
2022/03/01 05:56:56;;;;;;;24.30;12.87;;;3.70;42.70;;;;;;5055737;28;20462;-85
2022/03/01 05:59:23;;;;;;;21.57;11.90;;;3.70;42.70;;;;;;5065618;28;20474;-84
2022/03/01 06:01:50;;;;;;;19.30;12.33;;;3.70;42.90;;;;;;5084042;28;21174;-85
2022/03/01 06:04:18;;;;;;;18.90;11.23;;;3.70;42.80;;;;;;5051910;28;20447;-86
2022/03/01 06:06:45;;;;;;;13.70;7.87;;;3.70;42.80;;;;;;5083929;28;20460;-86
2022/03/01 06:09:12;;;;;;;15.53;7.70;;;3.70;42.50;;;;;;5066765;28;20471;-86
2022/03/01 06:11:39;;;;;;;13.50;7.93;;;3.70;42.70;;;;;;5064082;28;21279;-86
2022/03/01 06:14:06;;;;;;;15.03;7.47;;;3.70;42.90;;;;;;5081724;28;20474;-84
2022/03/01 06:16:34;;;;;;;13.93;7.27;;;3.60;42.90;;;;;;5061565;28;20467;-87
2022/03/01 06:19:01;;;;;;;15.13;8.53;;;3.50;42.90;;;;;;5062560;28;20645;-87
2022/03/01 06:21:30;;;;;;;13.80;8.00;;;3.50;42.90;;;;;;5047380;28;20447;-87
2022/03/01 06:24:00;;;;;;;11.77;7.60;;;3.50;42.90;;;;;;5059124;28;20454;-86
2022/03/01 06:26:27;;;;;;;13.30;7.63;;;3.40;42.90;;;;;;5061646;28;20677;-86
2022/03/01 06:28:54;;;;;;;18.60;10.07;;;3.40;43.20;;;;;;5061126;28;20475;-86
2022/03/01 06:31:21;;;;;;;14.80;7.03;;;3.40;42.90;;;;;;5062385;28;20459;-87
2022/03/01 06:33:47;;;;;;;13.37;7.60;;;3.30;43.10;;;;;;5046076;28;20463;-87
2022/03/01 06:36:14;;;;;;;17.27;11.03;;;3.30;43.60;;;;;;5079694;28;20711;-88
2022/03/01 06:38:43;;;;;;;20.00;7.70;;;3.40;43.40;;;;;;5059614;28;21349;-85
2022/03/01 06:41:10;;;;;;;14.33;7.80;;;3.40;43.30;;;;;;5045212;28;20460;-86
2022/03/01 06:43:37;;;;;;;11.97;6.97;;;3.50;43.20;;;;;;5062166;28;20450;-87
2022/03/01 06:46:04;;;;;;;14.17;7.93;;;3.40;42.90;;;;;;5061061;28;21436;-86
2022/03/01 06:48:31;;;;;;;11.97;6.73;;;3.40;43.00;;;;;;5082153;28;20458;-87
2022/03/01 06:50:58;;;;;;;11.00;8.03;;;3.30;43.30;;;;;;5060423;28;20832;-88
2022/03/01 06:53:25;;;;;;;16.60;7.10;;;3.40;43.40;;;;;;5076386;28;20900;-88
2022/03/01 06:55:53;;;;;;;12.60;7.40;;;3.40;43.30;;;;;;5056241;28;20483;-88
2022/03/01 06:58:20;;;;;;;9.93;6.50;;;3.50;43.50;;;;;;5060451;28;21149;-85
2022/03/01 07:00:47;;;;;;;17.57;7.63;;;3.60;43.40;;;;;;5044370;28;20444;-87
2022/03/01 07:03:14;;;;;;;16.63;7.47;;;3.70;43.50;;;;;;5079562;28;20858;-89
2022/03/01 07:05:41;;;;;;;14.00;6.93;;;3.80;43.60;;;;;;5078166;28;20451;-86
2022/03/01 07:08:09;;;;;;;10.80;7.30;;;3.80;43.70;;;;;;5058812;28;20945;-86
2022/03/01 07:10:36;;;;;;;18.63;8.20;;;3.80;43.50;;;;;;5060348;28;21190;-87
2022/03/01 07:13:05;;;;;;;15.50;8.20;;;3.90;43.30;;;;;;5060792;28;20502;-87
2022/03/01 07:15:33;;;;;;;14.93;8.57;;;3.90;43.20;;;;;;5059742;28;20475;-87
2022/03/01 07:18:01;;;;;;;16.40;8.03;;;3.90;43.10;;;;;;5059156;28;22002;-89
2022/03/01 07:20:28;;;;;;;15.57;9.03;;;3.90;43.40;;;;;;5079101;28;20558;-87
2022/03/01 07:22:55;;;;;;;15.30;8.90;;;3.90;43.50;;;;;;5060478;28;20524;-87
2022/03/01 07:25:23;;;;;;;15.67;7.90;;;4.00;43.60;;;;;;5060986;28;20906;-87
2022/03/01 07:27:52;;;;;;;20.30;8.33;;;4.00;43.60;;;;;;5058757;28;20459;-87
2022/03/01 07:30:21;;;;;;;14.97;9.03;;;4.00;44.10;;;;;;5059873;28;20537;-87
2022/03/01 07:32:50;;;;;;;16.10;10.10;;;3.90;43.10;;;;;;5059383;28;20444;-87
2022/03/01 07:35:17;;;;;;;17.93;8.53;;;3.90;43.60;;;;;;5050016;28;20480;-88
2022/03/01 07:37:44;;;;;;;16.97;9.03;;;3.90;43.60;;;;;;5060706;28;20851;-87
2022/03/01 07:40:13;;;;;;;16.87;8.63;;;3.90;43.40;;;;;;5058316;28;20487;-88
2022/03/01 07:42:40;;;;;;;13.60;8.97;;;3.90;43.60;;;;;;5079173;28;20532;-87
2022/03/01 07:45:08;;;;;;;17.53;8.60;;;3.90;43.90;;;;;;5036512;28;20452;-87
2022/03/01 07:47:36;;;;;;;13.40;8.70;;;4.00;43.80;;;;;;5080521;28;20474;-88
2022/03/01 07:50:04;;;;;;;20.83;7.60;;;4.00;43.70;;;;;;5045727;28;21109;-89
2022/03/01 07:52:31;;;;;;;16.30;7.43;;;4.10;43.30;;;;;;5063397;28;20459;-88
2022/03/01 07:54:58;;;;;;;17.43;8.00;;;3.90;43.00;;;;;;5065255;28;20471;-86
2022/03/01 07:57:25;;;;;;;11.57;8.47;;;4.10;43.20;;;;;;5078346;28;20459;-87
2022/03/01 07:59:52;;;;;;;12.93;7.60;;;4.00;43.10;;;;;;5079012;28;20470;-87
2022/03/01 08:02:19;;;;;;;16.50;8.70;;;4.00;42.70;;;;;;5042467;28;20651;-88
2022/03/01 08:04:48;;;;;;;16.17;9.23;;;4.00;42.80;;;;;;5047145;28;20859;-87
2022/03/01 08:07:14;;;;;;;8.90;6.30;;;4.10;43.10;;;;;;5048395;28;20470;-87
2022/03/01 08:09:41;;;;;;;10.50;6.13;;;4.30;43.10;;;;;;5082094;28;20472;-87
2022/03/01 08:12:09;;;;;;;13.23;6.63;;;4.30;42.30;;;;;;5082573;28;20451;-87
2022/03/01 08:14:36;;;;;;;10.10;6.20;;;4.20;41.60;;;;;;5078370;28;20831;-88
2022/03/01 08:17:04;;;;;;;10.20;6.73;;;4.20;41.80;;;;;;5079377;28;20460;-88
2022/03/01 08:19:31;;;;;;;13.80;6.27;;;4.20;41.20;;;;;;5056571;28;20482;-88
2022/03/01 08:21:59;;;;;;;17.17;6.70;;;4.30;40.90;;;;;;5047580;28;20817;-87
2022/03/01 08:24:27;;;;;;;15.67;9.13;;;4.40;40.80;;;;;;5063061;28;21009;-88
2022/03/01 08:26:53;;;;;;;27.83;8.90;;;4.50;40.50;;;;;;5080636;28;20451;-88
2022/03/01 08:29:20;;;;;;;18.43;6.23;;;4.20;39.40;;;;;;5047633;28;20471;-88
2022/03/01 08:31:47;;;;;;;10.70;5.27;;;4.10;39.70;;;;;;5051056;28;20460;-88
2022/03/01 08:34:15;;;;;;;16.83;7.03;;;3.90;40.60;;;;;;5080674;28;20494;-88
2022/03/01 08:36:42;;;;;;;20.17;8.70;;;4.10;41.30;;;;;;5078451;28;20472;-87
2022/03/01 08:39:10;;;;;;;25.87;10.80;;;4.30;40.20;;;;;;5059888;28;21057;-88
2022/03/01 08:41:37;;;;;;;14.40;6.20;;;4.50;40.30;;;;;;5045938;28;20466;-86
2022/03/01 08:44:05;;;;;;;10.50;5.00;;;4.60;39.40;;;;;;5077962;28;20749;-88
2022/03/01 08:46:32;;;;;;;10.50;5.27;;;4.80;39.30;;;;;;5064445;28;20631;-88
2022/03/01 08:48:59;;;;;;;8.93;5.20;;;4.90;39.50;;;;;;5080315;28;20489;-87
2022/03/01 08:51:27;;;;;;;8.77;5.33;;;4.80;38.70;;;;;;5065120;28;20462;-87
2022/03/01 08:53:55;;;;;;;14.47;5.73;;;4.80;38.60;;;;;;5029946;28;20457;-86
2022/03/01 08:56:23;;;;;;;13.07;4.80;;;4.80;38.50;;;;;;5045098;28;20467;-87
2022/03/01 08:58:50;;;;;;;12.63;5.67;;;5.00;38.70;;;;;;5062438;28;20466;-88
2022/03/01 09:01:17;;;;;;;9.90;5.10;;;5.10;38.30;;;;;;5058731;28;21012;-87
2022/03/01 09:03:44;;;;;;;6.90;4.90;;;5.20;38.00;;;;;;5078230;28;20463;-88
2022/03/01 09:06:12;;;;;;;9.50;6.27;;;5.30;38.30;;;;;;5040347;28;20894;-87
2022/03/01 09:08:40;;;;;;;10.30;7.40;;;5.50;37.90;;;;;;5034094;28;20455;-87
2022/03/01 09:11:08;;;;;;;6.30;4.23;;;5.30;37.00;;;;;;5078283;28;20571;-87
2022/03/01 09:13:36;;;;;;;11.33;4.90;;;5.20;37.80;;;;;;5059034;28;20993;-88
2022/03/01 09:16:03;;;;;;;17.03;5.97;;;5.30;37.30;;;;;;5043009;28;20468;-88
2022/03/01 09:18:30;;;;;;;8.17;5.70;;;5.40;37.10;;;;;;5082049;28;20451;-88
2022/03/01 09:20:58;;;;;;;8.10;5.10;;;5.50;37.40;;;;;;5063900;28;21030;-88
2022/03/01 09:23:25;;;;;;;14.00;6.03;;;5.50;37.00;;;;;;5069643;28;21015;-87
2022/03/01 09:25:52;;;;;;;10.47;5.97;;;5.60;37.00;;;;;;5080405;28;20450;-88
2022/03/01 09:28:19;;;;;;;11.37;6.50;;;5.80;37.60;;;;;;5045904;28;20459;-86
2022/03/01 09:30:47;;;;;;;9.50;5.73;;;6.00;37.10;;;;;;5045817;28;20987;-86
2022/03/01 09:33:14;;;;;;;9.17;4.87;;;6.00;36.10;;;;;;5044821;28;20532;-85
2022/03/01 09:35:41;;;;;;;8.33;5.73;;;5.90;35.90;;;;;;5045231;28;21009;-85
2022/03/01 09:38:08;;;;;;;11.70;5.67;;;6.00;36.20;;;;;;5060009;28;20464;-85
2022/03/01 09:40:35;;;;;;;16.43;7.20;;;6.10;36.10;;;;;;5064901;28;20486;-84
2022/03/01 09:43:03;;;;;;;11.83;5.70;;;6.20;36.40;;;;;;5045355;28;20679;-84
2022/03/01 09:45:30;;;;;;;9.33;5.83;;;6.40;35.90;;;;;;5081739;28;20443;-85
2022/03/01 09:47:58;;;;;;;9.87;5.57;;;6.60;35.80;;;;;;5060642;28;20722;-86
2022/03/01 09:50:28;;;;;;;9.53;4.47;;;6.60;35.10;;;;;;5080758;28;20958;-86
2022/03/01 09:52:56;;;;;;;8.10;4.87;;;6.50;34.50;;;;;;5064260;28;20615;-85
2022/03/01 09:55:23;;;;;;;9.73;5.80;;;6.70;35.50;;;;;;5061598;28;20512;-84
2022/03/01 09:57:50;;;;;;;10.30;6.27;;;6.80;35.10;;;;;;5034605;28;20791;-85
2022/03/01 10:00:18;;;;;;;14.33;6.23;;;6.80;34.80;;;;;;5045927;28;20471;-85
2022/03/01 10:02:45;;;;;;;10.07;5.50;;;7.00;35.50;;;;;;5045136;28;20763;-85
2022/03/01 10:05:15;;;;;;;7.37;5.90;;;7.10;34.10;;;;;;5045949;28;20836;-85
2022/03/01 10:07:44;;;;;;;9.97;6.00;;;7.20;34.50;;;;;;5060650;28;21108;-85
2022/03/01 10:10:16;;;;;;;11.83;6.43;;;7.30;34.10;;;;;;5048536;28;20515;-84
2022/03/01 10:12:44;;;;;;;9.60;6.67;;;7.30;33.50;;;;;;5046352;28;20440;-84
2022/03/01 10:15:13;;;;;;;11.47;6.73;;;7.40;33.70;;;;;;5044637;28;20498;-85
2022/03/01 10:17:42;;;;;;;14.60;6.40;;;7.10;32.60;;;;;;5062219;28;20451;-85
2022/03/01 10:20:11;;;;;;;15.00;8.67;;;7.20;33.70;;;;;;5066710;28;20474;-86
2022/03/01 10:22:44;;;;;;;17.53;6.60;;;7.10;32.90;;;;;;5032194;28;20459;-86
2022/03/01 10:25:12;;;;;;;12.60;6.90;;;7.20;33.10;;;;;;5064703;28;20531;-85
2022/03/01 10:27:40;;;;;;;5.80;4.90;;;7.50;34.00;;;;;;5034281;28;20454;-85
2022/03/01 10:30:08;;;;;;;10.90;6.60;;;7.80;33.00;;;;;;5064131;28;20477;-86
2022/03/01 10:32:36;;;;;;;11.83;6.27;;;8.10;33.00;;;;;;5082839;28;20455;-84
2022/03/01 10:35:05;;;;;;;20.50;10.27;;;8.20;32.00;;;;;;5066531;28;21000;-86
2022/03/01 10:37:34;;;;;;;11.30;7.53;;;8.20;32.00;;;;;;5065366;28;20852;-83
2022/03/01 10:40:19;;;;;;;14.13;6.30;;;8.50;32.60;;;;;;5082202;28;20577;-85
2022/03/01 10:42:47;;;;;;;10.97;6.47;;;8.90;32.50;;;;;;5047994;28;20542;-87
2022/03/01 10:45:14;;;;;;;16.80;7.17;;;9.10;30.60;;;;;;5063545;28;20442;-85
2022/03/01 10:47:52;;;;;;;7.90;5.43;;;9.00;30.00;;;;;;5047377;28;20465;-84
2022/03/01 10:50:19;;;;;;;7.90;5.33;;;9.00;30.40;;;;;;5064593;28;20474;-85
2022/03/01 10:52:47;;;;;;;11.50;6.60;;;8.70;29.50;;;;;;5082485;28;20463;-86
2022/03/01 10:55:25;;;;;;;9.27;6.17;;;9.00;31.10;;;;;;5063651;28;20505;-85
2022/03/01 10:58:06;;;;;;;7.00;4.80;;;9.00;29.50;;;;;;5082516;28;20459;-85
2022/03/01 11:00:35;;;;;;;9.33;5.07;;;9.30;30.00;;;;;;5063946;28;20479;-85
2022/03/01 11:03:04;;;;;;;11.40;6.57;;;9.40;30.00;;;;;;5047895;28;20455;-85
2022/03/01 11:05:33;;;;;;;8.13;6.27;;;9.70;30.10;;;;;;5045812;28;20993;-85
2022/03/01 11:08:02;;;;;;;7.93;5.80;;;9.50;29.80;;;;;;5063190;28;20452;-86
2022/03/01 11:10:32;;;;;;;8.93;6.50;;;9.30;30.30;;;;;;5064621;28;20979;-86
2022/03/01 11:13:01;;;;;;;7.37;5.50;;;9.00;30.00;;;;;;5049057;28;20466;-83
2022/03/01 11:15:48;;;;;;;14.77;7.23;;;9.30;30.60;;;;;;5049492;28;20587;-85
2022/03/01 11:18:30;;;;;;;6.43;5.03;;;9.60;30.30;;;;;;5065462;28;20871;-85
2022/03/01 11:20:57;;;;;;;9.90;6.43;;;10.00;28.30;;;;;;5064879;28;20447;-84
2022/03/01 11:23:27;;;;;;;10.83;7.27;;;10.20;28.70;;;;;;5032736;28;20448;-86
2022/03/01 11:25:55;;;;;;;11.23;6.53;;;10.40;28.60;;;;;;5084595;28;21236;-85
2022/03/01 11:28:39;;;;;;;8.20;5.20;;;10.40;27.80;;;;;;5066362;28;20834;-87
2022/03/01 11:31:18;;;;;;;12.30;6.00;;;10.40;28.80;;;;;;5066491;28;20461;-86
2022/03/01 11:33:54;;;;;;;11.20;6.90;;;10.70;28.80;;;;;;5046722;28;20461;-86
2022/03/01 11:36:22;;;;;;;12.53;6.43;;;11.00;28.30;;;;;;5050998;28;20521;-85
2022/03/01 11:38:49;;;;;;;7.97;6.20;;;10.80;27.60;;;;;;5081881;28;20478;-86
2022/03/01 11:41:22;;;;;;;9.60;6.43;;;10.50;28.40;;;;;;5065599;28;20462;-84
2022/03/01 11:43:55;;;;;;;9.50;6.13;;;10.60;28.70;;;;;;5046463;28;20451;-85
2022/03/01 11:46:23;;;;;;;9.13;6.20;;;10.20;28.60;;;;;;5052177;28;20448;-84
2022/03/01 11:48:55;;;;;;;9.67;6.03;;;10.30;28.80;;;;;;5084055;28;20516;-85
2022/03/01 11:51:32;;;;;;;9.63;5.80;;;10.20;28.30;;;;;;5065447;28;20576;-86
2022/03/01 11:54:04;;;;;;;11.47;6.40;;;10.00;29.00;;;;;;5083314;28;20464;-85
2022/03/01 11:56:33;;;;;;;11.33;5.67;;;10.10;29.10;;;;;;5078718;28;20558;-86
2022/03/01 11:59:05;;;;;;;12.43;6.47;;;10.50;28.80;;;;;;5032025;28;20498;-86
2022/03/01 12:01:33;;;;;;;10.30;6.90;;;10.60;28.30;;;;;;5046129;28;21028;-86
2022/03/01 12:04:02;;;;;;;10.93;6.00;;;11.00;27.90;;;;;;5081328;28;20451;-88
2022/03/01 12:06:31;;;;;;;10.40;5.90;;;10.90;27.90;;;;;;5028717;28;20452;-87
2022/03/01 12:08:59;;;;;;;10.53;6.43;;;10.70;27.90;;;;;;5042090;28;20463;-86
2022/03/01 12:11:36;;;;;;;12.33;6.80;;;10.80;28.10;;;;;;5076244;28;20442;-86
2022/03/01 12:14:06;;;;;;;13.90;6.10;;;11.20;28.20;;;;;;5045013;28;20446;-85
2022/03/01 12:16:34;;;;;;;8.13;5.97;;;11.80;27.80;;;;;;5061980;28;20471;-86
2022/03/01 12:19:11;;;;;;;11.90;6.20;;;12.10;26.20;;;;;;5061880;28;20479;-86
2022/03/01 12:21:39;;;;;;;16.60;6.53;;;12.20;26.90;;;;;;5030417;28;20827;-86
2022/03/01 12:24:08;;;;;;;8.70;5.60;;;12.40;25.90;;;;;;5045857;28;20443;-87
2022/03/01 12:26:46;;;;;;;14.97;6.83;;;12.10;26.30;;;;;;5062662;28;20468;-86
2022/03/01 12:29:14;;;;;;;9.13;5.73;;;12.10;25.70;;;;;;5047947;28;20466;-84
2022/03/01 12:31:43;;;;;;;13.03;6.90;;;12.20;26.60;;;;;;5062497;28;20470;-83
2022/03/01 12:34:11;;;;;;;12.40;6.60;;;12.30;25.80;;;;;;5065616;28;20969;-84
2022/03/01 12:36:39;;;;;;;11.10;6.43;;;12.40;26.40;;;;;;5048097;28;20474;-85
2022/03/01 12:39:10;;;;;;;14.80;6.87;;;12.60;26.10;;;;;;5079529;28;20526;-85
2022/03/01 12:41:37;;;;;;;12.23;6.30;;;12.70;24.80;;;;;;5063268;28;20988;-86
2022/03/01 12:44:07;;;;;;;9.03;6.40;;;12.90;24.10;;;;;;5065170;28;20450;-87
2022/03/01 12:46:35;;;;;;;9.70;5.17;;;13.10;24.00;;;;;;5053749;28;20463;-85
2022/03/01 12:49:05;;;;;;;13.47;6.97;;;13.10;24.90;;;;;;5065354;28;20486;-86